Main page
METAR-TAF:

METAR-TAF

Airports :

Dushanbe, Tajikistan

Dushanbe International Airport

latitude: 38-33N, longitude: 068-47E, elevation: 803 m

Current weather observation

The report was made 25 minutes ago, at 10:00 UTC
Wind 2 kt from variable directions
Temperature 36°C
Humidity 15%
Pressure 1010 hPa
Visibility 10 km or more
Few clouds at a height of 6600 ft, Cumulonimbus.

METAR: UTDD 281000Z VRB01MPS 9999 FEW066CB 36/05 Q1010 R09/D TEMPO TS RMK QFE690/0920

Time: 15:25 (10:25 UTC)

Forecast

The report was made 56 minutes ago, at 09:29 UTC
Forecast valid from 28 at 10 UTC to 28 at 22 UTC
Wind 4 kt from variable directions
Visibility: 6000 m
Scattered clouds at a height of 6600 ft, Cumulonimbus.
Broken clouds at a height of 15000 ft
Temporary
from 28 at 10 UTC to 28 at 22 UTC
Wind 16 kt from variable directions with gusts up to 25 kt
thunderstorm

TAF: UTDD 280929Z 2810/2822 VRB02MPS 6000 SCT066CB BKN150 TEMPO 2810/2822 VRB08G13MPS TS

Weather observations and forecasts of more than 4000 airports (METAR and TAF reports).

The available stations are represented by yellow and red dots on the map.

Hover mouse over dot to see the name of the station.

Then click to see weather observations and forecasts.

To change the map : click on the green buttons with a black cross to zoom in, on the green button with a dash to zoom out, or on the green arrows for adjacent maps.


METAR-TAF: